Time;durP1;ratioP1;P1;durP2;ratioP2;P2;SDS_P1;SDS_P2;PMS_P1;PMS_P2;Temp;Humidity;BMP_temperature;BMP_pressure;BME280_temperature;BME280_humidity;BME280_pressure;Samples;Min_cycle;Max_cycle;Signal;HPM_P1;HPM_P2
2024/04/03 00:21:50;;;;;;;;;;;;;;;;;;;;;
2024/04/03 00:25:17;;;;;;;;;;;;;;;;;;;;;
2024/04/03 00:32:27;;;;;;;;;;;;;;;;;;;;;
2024/04/03 00:34:54;;;;;;;;;;;;;;;;;;;;;
2024/04/03 00:48:35;;;;;;;;;;;;;;;;;;;;;
2024/04/03 00:58:54;;;;;;;;;;;;;;;;;;;;;
2024/04/03 01:09:36;;;;;;;;;;;;;;;;;;;;;
2024/04/03 01:16:15;;;;;;;0.10;0.10;;;;;;;9.83;100.00;98576.59;4760382;29;20398;-79
2024/04/03 01:19:29;;;;;;;;;;;;;;;;;;;;;
2024/04/03 01:22:17;;;;;;;;;;;;;;;;;;;;;
2024/04/03 01:25:09;;;;;;;0.00;0.00;;;;;;;9.66;100.00;98516.38;4905119;28;20129;-78
2024/04/03 01:31:28;;;;;;;;;;;;;;;;;;;;;
2024/04/03 01:34:44;;;;;;;0.00;0.00;;;;;;;9.68;100.00;98484.09;4887048;29;20052;-78
2024/04/03 01:41:34;;;;;;;;;;;;;;;;;;;;;
2024/04/03 02:10:15;;;;;;;;;;;;;;;;;;;;;
2024/04/03 02:13:22;;;;;;;0.00;0.00;;;;;;;10.11;100.00;98478.19;4922748;29;20062;-78
2024/04/03 02:16:29;;;;;;;;;;;;;;;;;;;;;
2024/04/03 02:19:04;;;;;;;0.00;0.00;;;;;;;9.88;100.00;98442.69;5003224;28;20060;-79
2024/04/03 02:26:03;;;;;;;;;;;;;;;;;;;;;
2024/04/03 02:33:17;;;;;;;;;;;;;;;;;;;;;
2024/04/03 02:43:21;;;;;;;;;;;;;;;;;;;;;
2024/04/03 02:46:05;;;;;;;0.00;0.00;;;;;;;10.19;100.00;98458.34;4849564;29;20057;-81
2024/04/03 02:49:36;;;;;;;;;;;;;;;;;;;;;
2024/04/03 02:53:07;;;;;;;;;;;;;;;;;;;;;
2024/04/03 02:56:41;;;;;;;;;;;;;;;;;;;;;
2024/04/03 03:07:04;;;;;;;0.00;0.00;;;;;;;10.15;100.00;98440.97;4842045;29;20113;-78
2024/04/03 03:10:41;;;;;;;;;;;;;;;;;;;;;
2024/04/03 03:13:55;;;;;;;0.00;0.00;;;;;;;9.84;100.00;98381.66;4818539;29;20178;-80
2024/04/03 03:17:05;;;;;;;;;;;;;;;;;;;;;
2024/04/03 03:27:19;;;;;;;0.10;0.10;;;;;;;10.18;100.00;98418.47;4789004;29;20112;-77
2024/04/03 03:54:52;;;;;;;;;;;;;;;;;;;;;
2024/04/03 03:57:32;;;;;;;0.00;0.00;;;;;;;9.94;100.00;98414.16;4775745;29;20039;-80
2024/04/03 04:00:12;;;;;;;;;;;;;;;;;;;;;
2024/04/03 04:03:04;;;;;;;;;;;;;;;;;;;;;
2024/04/03 04:05:52;;;;;;;;;;;;;;;;;;;;;
2024/04/03 04:11:53;;;;;;;0.00;0.00;;;;;;;9.68;100.00;98377.66;4938064;28;20130;-79
2024/04/03 04:14:25;;;;;;;0.00;0.00;;;;;;;9.70;100.00;98392.63;4948841;29;20105;-80
2024/04/03 04:17:03;;;;;;;0.00;0.00;;;;;;;9.67;100.00;98381.53;4950443;29;20051;-79
2024/04/03 04:20:07;;;;;;;0.00;0.00;;;;;;;9.89;100.00;98416.22;4933949;29;20031;-78
2024/04/03 04:31:12;;;;;;;;;;;;;;;;;;;;;
2024/04/03 04:34:55;;;;;;;;;;;;;;;;;;;;;
2024/04/03 04:52:00;;;;;;;0.00;0.00;;;;;;;9.41;100.00;98403.94;4820471;29;20046;-80
2024/04/03 05:05:11;;;;;;;;;;;;;;;;;;;;;
2024/04/03 05:07:46;;;;;;;0.00;0.00;;;;;;;9.31;100.00;98380.44;4869178;29;20049;-79
2024/04/03 05:10:30;;;;;;;0.00;0.00;;;;;;;9.18;100.00;98360.25;4958470;28;20050;-78
2024/04/03 05:23:51;;;;;;;0.00;0.00;;;;;;;8.97;100.00;98380.94;4871107;29;20482;-79
2024/04/03 05:32:48;;;;;;;;;;;;;;;;;;;;;
2024/04/03 05:40:09;;;;;;;;;;;;;;;;;;;;;
2024/04/03 05:43:04;;;;;;;0.00;0.00;;;;;;;8.83;100.00;98398.06;4820416;29;20134;-80
2024/04/03 05:46:24;;;;;;;0.00;0.00;;;;;;;8.90;100.00;98403.94;4805947;29;20509;-81
2024/04/03 05:48:52;;;;;;;0.00;0.00;;;;;;;8.91;100.00;98411.00;4801537;29;20058;-77
2024/04/03 05:54:26;;;;;;;0.00;0.00;;;;;;;8.48;100.00;98367.72;4841584;29;20032;-80
2024/04/03 05:57:52;;;;;;;;;;;;;;;;;;;;;
2024/04/03 06:00:30;;;;;;;0.10;0.10;;;;;;;8.76;100.00;98422.22;4835039;29;20041;-80
2024/04/03 06:02:58;;;;;;;0.00;0.00;;;;;;;8.50;100.00;98378.34;4866581;29;20032;-78
2024/04/03 06:05:39;;;;;;;0.00;0.00;;;;;;;8.43;100.00;98384.13;4901845;29;20241;-78
2024/04/03 06:11:47;;;;;;;0.00;0.00;;;;;;;8.50;100.00;98379.13;4989190;28;20066;-80
2024/04/03 06:17:18;;;;;;;0.00;0.00;;;;;;;8.86;100.00;98424.75;4996928;28;20480;-77
2024/04/03 06:19:57;;;;;;;0.00;0.00;;;;;;;8.84;100.00;98418.78;5000020;28;20082;-80
2024/04/03 06:22:22;;;;;;;0.00;0.00;;;;;;;8.96;100.00;98439.28;5003068;28;20018;-77
2024/04/03 06:24:48;;;;;;;0.00;0.00;;;;;;;8.79;100.00;98418.91;4989688;28;20033;-78
2024/04/03 06:27:13;;;;;;;0.00;0.00;;;;;;;8.71;100.00;98389.63;5013576;28;21303;-77
2024/04/03 06:29:39;;;;;;;0.00;0.00;;;;;;;8.73;100.00;98404.56;4992076;28;20061;-77
2024/04/03 06:32:07;;;;;;;0.00;0.00;;;;;;;8.75;100.00;98412.44;4996232;28;20021;-78
2024/04/03 06:34:52;;;;;;;0.00;0.00;;;;;;;8.64;100.00;98397.38;5005710;28;20376;-77
2024/04/03 06:37:21;;;;;;;0.10;0.10;;;;;;;8.75;100.00;98406.97;4975558;28;20037;-78
2024/04/03 06:40:02;;;;;;;0.00;0.00;;;;;;;8.90;100.00;98425.75;4991650;28;20673;-78
2024/04/03 06:42:44;;;;;;;0.00;0.00;;;;;;;8.71;100.00;98409.50;5009687;28;20207;-78
2024/04/03 06:45:09;;;;;;;0.00;0.00;;;;;;;8.71;100.00;98403.25;4999877;28;20167;-80
2024/04/03 06:47:41;;;;;;;0.00;0.00;;;;;;;8.76;100.00;98411.34;4995446;28;20124;-78
2024/04/03 06:50:09;;;;;;;0.00;0.00;;;;;;;8.73;100.00;98398.28;4999824;28;20022;-82
2024/04/03 06:52:35;;;;;;;0.00;0.00;;;;;;;8.97;100.00;98419.09;4995865;28;20428;-77
2024/04/03 06:55:00;;;;;;;0.00;0.00;;;;;;;8.98;100.00;98407.06;5013992;28;20132;-79
2024/04/03 06:57:26;;;;;;;0.10;0.10;;;;;;;8.97;100.00;98408.19;5016093;28;20116;-79
2024/04/03 07:00:12;;;;;;;0.00;0.00;;;;;;;9.16;100.00;98422.50;4999127;28;20034;-82
2024/04/03 07:02:48;;;;;;;0.10;0.10;;;;;;;9.10;100.00;98421.00;5004170;28;20075;-78
2024/04/03 07:05:15;;;;;;;0.00;0.00;;;;;;;8.93;100.00;98396.28;5016700;28;20099;-78
2024/04/03 07:07:44;;;;;;;0.00;0.00;;;;;;;8.93;100.00;98397.06;4991690;28;20030;-78
2024/04/03 07:10:24;;;;;;;0.00;0.00;;;;;;;8.97;100.00;98397.28;5005133;28;20030;-82
2024/04/03 07:12:50;;;;;;;0.00;0.00;;;;;;;9.22;100.00;98426.72;5005597;28;20049;-77
2024/04/03 07:15:16;;;;;;;0.10;0.10;;;;;;;9.12;100.00;98402.41;4994604;28;21010;-79
2024/04/03 07:17:42;;;;;;;0.00;0.00;;;;;;;9.13;100.00;98395.03;5015591;28;20022;-78
2024/04/03 07:20:24;;;;;;;0.00;0.00;;;;;;;9.19;100.00;98413.69;4989217;28;20037;-78
2024/04/03 07:22:54;;;;;;;0.10;0.10;;;;;;;9.14;100.00;98389.28;5020135;28;20507;-79
2024/04/03 07:25:34;;;;;;;0.00;0.00;;;;;;;9.38;100.00;98408.09;4990379;28;20045;-79
2024/04/03 07:28:11;;;;;;;0.00;0.00;;;;;;;9.59;100.00;98432.19;5008805;28;20014;-79
2024/04/03 07:30:42;;;;;;;0.00;0.00;;;;;;;9.60;100.00;98437.31;4997432;28;20026;-78
2024/04/03 07:33:11;;;;;;;0.00;0.00;;;;;;;9.59;100.00;98429.44;5009832;28;20451;-78
2024/04/03 07:35:59;;;;;;;;;;;;;;;;;;;;;
2024/04/03 07:38:27;;;;;;;0.00;0.00;;;;;;;9.51;100.00;98402.91;4959109;28;20038;-79
2024/04/03 07:40:54;;;;;;;0.00;0.00;;;;;;;9.69;100.00;98412.03;4988012;28;20056;-79
2024/04/03 07:43:22;;;;;;;0.00;0.00;;;;;;;9.78;100.00;98419.19;4985140;28;20029;-78
2024/04/03 07:45:48;;;;;;;0.00;0.00;;;;;;;10.01;100.00;98408.25;5011318;28;20484;-77
2024/04/03 07:48:19;;;;;;;0.10;0.10;;;;;;;10.14;100.00;98425.69;4999678;28;20083;-77
2024/04/03 07:50:44;;;;;;;0.00;0.00;;;;;;;10.18;100.00;98423.13;5024339;28;20046;-78
2024/04/03 07:53:10;;;;;;;0.00;0.00;;;;;;;10.28;100.00;98442.81;4993286;28;20778;-78
2024/04/03 07:55:39;;;;;;;0.00;0.00;;;;;;;10.25;100.00;98446.16;4990055;28;20037;-78
2024/04/03 07:58:15;;;;;;;;;;;;;;;;;;;;;
2024/04/03 08:00:41;;;;;;;0.00;0.00;;;;;;;10.21;100.00;98456.09;5030232;28;20031;-79
2024/04/03 08:03:06;;;;;;;0.00;0.00;;;;;;;10.21;100.00;98444.38;5009507;28;20104;-79
2024/04/03 08:05:35;;;;;;;0.00;0.00;;;;;;;10.37;100.00;98463.94;4985301;28;20025;-78
2024/04/03 08:08:00;;;;;;;0.00;0.00;;;;;;;10.30;100.00;98442.50;4991044;28;20029;-78
2024/04/03 08:10:34;;;;;;;0.00;0.00;;;;;;;10.42;100.00;98461.88;5000845;28;20033;-79
2024/04/03 08:12:59;;;;;;;0.00;0.00;;;;;;;10.40;100.00;98450.44;4991370;28;20058;-76
2024/04/03 08:15:25;;;;;;;0.00;0.00;;;;;;;10.54;100.00;98463.22;5024730;28;20145;-78
2024/04/03 08:17:51;;;;;;;0.00;0.00;;;;;;;10.60;100.00;98462.78;5026383;28;20037;-78
2024/04/03 08:20:16;;;;;;;0.00;0.00;;;;;;;10.73;100.00;98477.47;5016897;28;20033;-79
2024/04/03 08:22:42;;;;;;;0.00;0.00;;;;;;;10.95;100.00;98486.72;5012951;28;20075;-78
2024/04/03 08:25:11;;;;;;;0.00;0.00;;;;;;;11.15;100.00;98467.00;5027862;28;20140;-77
2024/04/03 08:27:36;;;;;;;0.00;0.00;;;;;;;11.43;100.00;98482.34;5015178;28;20017;-77
2024/04/03 08:30:09;;;;;;;0.00;0.00;;;;;;;11.41;100.00;98473.66;5009080;28;20453;-79
2024/04/03 08:32:39;;;;;;;0.00;0.00;;;;;;;11.65;100.00;98479.50;4993610;28;20048;-77
2024/04/03 08:35:05;;;;;;;0.00;0.00;;;;;;;11.79;100.00;98494.97;4981318;28;20041;-78
2024/04/03 08:37:32;;;;;;;0.00;0.00;;;;;;;11.77;100.00;98499.94;5009088;28;20017;-78
2024/04/03 08:39:57;;;;;;;0.00;0.00;;;;;;;11.92;100.00;98513.19;4985720;28;20037;-77
2024/04/03 08:42:23;;;;;;;0.00;0.00;;;;;;;11.84;100.00;98508.50;5012097;28;20105;-78
2024/04/03 08:44:48;;;;;;;0.00;0.00;;;;;;;11.73;100.00;98507.22;5007865;28;20033;-78
2024/04/03 08:47:15;;;;;;;0.00;0.00;;;;;;;11.69;100.00;98479.66;4996672;28;20511;-77
2024/04/03 08:49:43;;;;;;;0.00;0.00;;;;;;;11.86;100.00;98490.63;5033608;28;20101;-78
2024/04/03 08:52:12;;;;;;;0.00;0.00;;;;;;;11.91;100.00;98495.13;4986566;28;20176;-78
2024/04/03 08:54:45;;;;;;;0.00;0.00;;;;;;;11.91;100.00;98497.88;4985029;28;20122;-78
2024/04/03 08:57:10;;;;;;;0.00;0.00;;;;;;;11.77;100.00;98509.00;5024925;28;20025;-78
2024/04/03 08:59:50;;;;;;;0.00;0.00;;;;;;;11.78;100.00;98526.22;4992507;28;20379;-78
2024/04/03 09:02:15;;;;;;;0.10;0.10;;;;;;;11.53;100.00;98477.41;5002069;28;20112;-80
2024/04/03 09:04:50;;;;;;;0.00;0.00;;;;;;;11.57;100.00;98504.13;5018363;28;20560;-79
2024/04/03 09:07:19;;;;;;;0.00;0.00;;;;;;;11.60;100.00;98526.19;5012211;28;20044;-77
2024/04/03 09:09:45;;;;;;;0.00;0.00;;;;;;;11.49;100.00;98552.25;5021358;28;20059;-77
2024/04/03 09:12:13;;;;;;;0.00;0.00;;;;;;;11.56;100.00;98552.59;5005050;28;20053;-77
2024/04/03 09:14:38;;;;;;;0.00;0.00;;;;;;;11.57;100.00;98554.19;5027113;28;20017;-78
2024/04/03 09:17:09;;;;;;;0.10;0.10;;;;;;;11.21;100.00;98574.34;5006593;28;20040;-79
2024/04/03 09:19:36;;;;;;;0.00;0.00;;;;;;;10.87;100.00;98559.41;5011114;28;20105;-78
2024/04/03 09:22:08;;;;;;;0.10;0.10;;;;;;;10.89;100.00;98559.88;5001005;28;20025;-78
2024/04/03 09:24:33;;;;;;;0.00;0.00;;;;;;;10.99;100.00;98562.38;5024784;28;20482;-79
2024/04/03 09:27:02;;;;;;;0.00;0.00;;;;;;;11.39;100.00;98577.16;4996529;28;20030;-79
2024/04/03 09:29:29;;;;;;;0.00;0.00;;;;;;;11.73;100.00;98589.38;5012853;28;20038;-79
2024/04/03 09:32:04;;;;;;;0.00;0.00;;;;;;;11.48;100.00;98583.50;4994628;28;20493;-78
2024/04/03 09:34:33;;;;;;;0.00;0.00;;;;;;;11.49;100.00;98590.56;5011639;28;20426;-77
2024/04/03 09:37:01;;;;;;;0.00;0.00;;;;;;;11.91;100.00;98601.94;5000863;28;20037;-78
2024/04/03 09:39:26;;;;;;;0.00;0.00;;;;;;;12.48;100.00;98581.84;5025497;28;20519;-79
2024/04/03 09:42:20;;;;;;;0.00;0.00;;;;;;;12.44;100.00;98608.34;4993653;28;20042;-77
2024/04/03 09:45:01;;;;;;;0.00;0.00;;;;;;;11.94;100.00;98601.34;5016434;28;20032;-78
2024/04/03 09:47:35;;;;;;;0.10;0.10;;;;;;;11.58;100.00;98621.53;5005479;28;20100;-81
2024/04/03 09:50:09;;;;;;;0.00;0.00;;;;;;;11.18;100.00;98602.34;5001583;28;20486;-78
2024/04/03 09:52:35;;;;;;;0.00;0.00;;;;;;;11.21;100.00;98639.22;5025674;28;20029;-77
2024/04/03 09:55:04;;;;;;;0.00;0.00;;;;;;;11.17;100.00;98617.16;4995025;28;20025;-77
2024/04/03 09:57:29;;;;;;;0.10;0.10;;;;;;;11.63;100.00;98650.69;5022211;28;20136;-77
2024/04/03 09:59:57;;;;;;;0.00;0.00;;;;;;;12.68;100.00;98662.66;5011489;28;20527;-78
2024/04/03 10:02:23;;;;;;;0.00;0.00;;;;;;;15.63;100.00;98656.06;4999048;28;20029;-78
2024/04/03 10:04:57;;;;;;;0.00;0.00;;;;;;;16.20;89.27;98668.16;5007970;28;20026;-78
2024/04/03 10:07:25;;;;;;;;;;;;;;;14.90;93.16;98694.06;5015926;28;20097;-78
2024/04/03 10:09:51;;;;;;;0.00;0.00;;;;;;;13.52;100.00;98661.56;5005797;28;20068;-76
2024/04/03 10:12:22;;;;;;;0.00;0.00;;;;;;;12.66;100.00;98667.69;5020571;28;20071;-78
2024/04/03 10:14:55;;;;;;;0.00;0.00;;;;;;;12.15;100.00;98677.44;5019086;28;20024;-77
2024/04/03 10:17:23;;;;;;;0.00;0.00;;;;;;;12.48;100.00;98682.50;5015242;28;20061;-78
2024/04/03 10:19:59;;;;;;;0.00;0.00;;;;;;;12.70;100.00;98685.09;5010987;28;20072;-78
2024/04/03 10:22:28;;;;;;;0.00;0.00;;;;;;;12.88;100.00;98668.63;5009144;28;20026;-77
2024/04/03 10:24:54;;;;;;;0.00;0.00;;;;;;;12.97;100.00;98685.09;5009630;28;20022;-77
2024/04/03 10:27:19;;;;;;;0.00;0.00;;;;;;;13.07;100.00;98690.25;4990189;28;20103;-77
2024/04/03 10:29:45;;;;;;;0.00;0.00;;;;;;;13.12;100.00;98697.50;5004460;28;20388;-77
2024/04/03 10:32:14;;;;;;;0.00;0.00;;;;;;;12.80;100.00;98705.09;5005454;28;20045;-77
2024/04/03 10:34:39;;;;;;;0.00;0.00;;;;;;;12.68;100.00;98706.53;5005841;28;20052;-76
2024/04/03 10:37:05;;;;;;;0.00;0.00;;;;;;;12.44;100.00;98696.06;5014873;28;20056;-77
2024/04/03 10:39:31;;;;;;;0.00;0.00;;;;;;;12.04;100.00;98696.91;4984191;28;20071;-78
2024/04/03 10:41:59;;;;;;;0.00;0.00;;;;;;;11.74;100.00;98708.69;5011913;28;20112;-78
2024/04/03 10:44:25;;;;;;;0.00;0.00;;;;;;;11.62;100.00;98722.97;5023960;28;20040;-76
2024/04/03 10:46:51;;;;;;;0.00;0.00;;;;;;;11.61;100.00;98703.03;4999993;28;20030;-76
2024/04/03 10:49:16;;;;;;;0.00;0.00;;;;;;;11.78;100.00;98698.72;5017436;28;20039;-76
2024/04/03 10:51:44;;;;;;;0.03;0.03;;;;;;;11.86;100.00;98717.16;5005930;28;20104;-76
2024/04/03 10:54:12;;;;;;;0.00;0.00;;;;;;;11.80;100.00;98748.53;5010831;28;20060;-76
2024/04/03 10:56:37;;;;;;;0.00;0.00;;;;;;;11.99;100.00;98718.19;4999663;28;20391;-78
2024/04/03 10:59:03;;;;;;;0.00;0.00;;;;;;;12.12;100.00;98728.22;5016201;28;20026;-77
2024/04/03 11:01:31;;;;;;;0.00;0.00;;;;;;;12.57;100.00;98727.16;5011984;28;20067;-76
2024/04/03 11:03:58;;;;;;;0.00;0.00;;;;;;;15.29;97.90;98754.47;4999110;28;20037;-78
2024/04/03 11:06:23;;;;;;;0.00;0.00;;;;;;;15.85;87.82;98729.25;5006527;28;20052;-75
2024/04/03 11:08:49;;;;;;;0.00;0.00;;;;;;;15.68;87.04;98738.50;5010922;28;20021;-76
2024/04/03 11:11:14;;;;;;;0.00;0.00;;;;;;;15.52;87.22;98743.84;5016829;28;20046;-74
2024/04/03 11:13:49;;;;;;;0.00;0.00;;;;;;;15.31;90.71;98754.94;5005491;28;20087;-77
2024/04/03 11:16:15;;;;;;;0.00;0.00;;;;;;;16.40;89.00;98757.44;5009386;28;20088;-76
2024/04/03 11:18:43;;;;;;;0.00;0.00;;;;;;;19.51;73.35;98778.06;5000974;28;20030;-76
2024/04/03 11:21:19;;;;;;;0.00;0.00;;;;;;;19.47;64.60;98766.09;5012920;28;20030;-76
2024/04/03 11:23:45;;;;;;;0.00;0.00;;;;;;;18.39;70.77;98767.31;4992946;28;20046;-77
2024/04/03 11:26:13;;;;;;;0.00;0.00;;;;;;;17.84;72.36;98761.56;4993873;28;20088;-75
2024/04/03 11:28:41;;;;;;;0.00;0.00;;;;;;;16.39;74.98;98775.13;5002484;28;20037;-76
2024/04/03 11:31:07;;;;;;;0.00;0.00;;;;;;;15.35;82.92;98783.41;5022648;28;20048;-76
2024/04/03 11:33:32;;;;;;;0.00;0.00;;;;;;;14.66;88.14;98769.03;5007524;28;20029;-76
2024/04/03 11:35:58;;;;;;;0.00;0.00;;;;;;;14.12;88.85;98811.66;4986138;28;20124;-76
2024/04/03 11:38:23;;;;;;;0.03;0.03;;;;;;;14.44;92.85;98792.91;5018577;28;20695;-75
2024/04/03 11:40:48;;;;;;;0.00;0.00;;;;;;;14.65;86.08;98790.22;4993468;28;20036;-75
2024/04/03 11:43:17;;;;;;;0.00;0.00;;;;;;;14.17;87.48;98802.41;5017560;28;20489;-77
2024/04/03 11:45:42;;;;;;;0.00;0.00;;;;;;;13.46;91.29;98797.44;5008825;28;20053;-76
2024/04/03 11:48:07;;;;;;;0.00;0.00;;;;;;;12.87;93.91;98801.44;5008663;28;20114;-77
2024/04/03 11:50:33;;;;;;;0.00;0.00;;;;;;;12.45;97.67;98823.75;5027368;28;20034;-76
2024/04/03 11:52:58;;;;;;;0.00;0.00;;;;;;;12.20;100.00;98822.53;5011481;28;20389;-76
2024/04/03 11:55:24;;;;;;;0.00;0.00;;;;;;;11.85;100.00;98825.06;5013361;28;20452;-75
2024/04/03 11:57:49;;;;;;;0.00;0.00;;;;;;;11.91;100.00;98836.72;4986599;28;20048;-76
2024/04/03 12:00:15;;;;;;;0.00;0.00;;;;;;;12.55;100.00;98847.34;5029991;28;20044;-76
2024/04/03 12:02:41;;;;;;;0.00;0.00;;;;;;;13.64;98.50;98853.97;5016488;28;20053;-76
2024/04/03 12:05:07;;;;;;;0.00;0.00;;;;;;;14.15;95.33;98848.69;4994128;28;20025;-76
2024/04/03 12:07:37;;;;;;;0.10;0.10;;;;;;;14.45;94.53;98849.50;5023495;28;20037;-76
2024/04/03 12:10:07;;;;;;;0.00;0.00;;;;;;;15.08;88.32;98868.13;5018110;28;20025;-77
2024/04/03 12:12:34;;;;;;;0.00;0.00;;;;;;;15.10;85.72;98876.06;5019398;28;20109;-76
2024/04/03 12:14:59;;;;;;;0.00;0.00;;;;;;;15.08;83.01;98873.66;5011211;28;20049;-76
2024/04/03 12:17:25;;;;;;;0.08;0.08;;;;;;;15.58;77.36;98880.25;5003346;28;20474;-75
2024/04/03 12:20:06;;;;;;;0.00;0.00;;;;;;;16.13;73.26;98872.78;5018560;28;20105;-74
2024/04/03 12:22:32;;;;;;;0.00;0.00;;;;;;;15.07;70.90;98876.72;5014819;28;20021;-76
2024/04/03 12:24:59;;;;;;;0.00;0.00;;;;;;;13.98;74.47;98888.00;4995402;28;20060;-77
2024/04/03 12:27:24;;;;;;;0.00;0.00;;;;;;;13.43;79.14;98900.47;5021655;28;20030;-75
2024/04/03 12:29:53;;;;;;;0.00;0.00;;;;;;;13.26;81.52;98921.25;5011687;28;20047;-74
2024/04/03 12:32:19;;;;;;;0.00;0.00;;;;;;;13.46;81.33;98899.03;5023054;28;20034;-74
2024/04/03 12:34:45;;;;;;;0.00;0.00;;;;;;;13.82;79.00;98890.44;5014530;28;20036;-76
2024/04/03 12:37:11;;;;;;;0.00;0.00;;;;;;;14.11;76.49;98908.97;4996598;28;20026;-75
2024/04/03 12:39:38;;;;;;;0.00;0.00;;;;;;;13.87;76.04;98905.94;5010872;28;20080;-75
2024/04/03 12:42:10;;;;;;;0.00;0.00;;;;;;;13.38;76.13;98904.19;4995331;28;20030;-76
2024/04/03 12:44:35;;;;;;;0.00;0.00;;;;;;;13.38;77.76;98923.41;5015174;28;20033;-75
2024/04/03 12:47:06;;;;;;;0.00;0.00;;;;;;;13.95;75.65;98910.63;5020510;28;20026;-75
2024/04/03 12:49:32;;;;;;;0.00;0.00;;;;;;;15.05;67.47;98923.88;5008824;28;20040;-76
2024/04/03 12:51:58;;;;;;;0.00;0.00;;;;;;;15.22;65.66;98933.19;4998879;28;20407;-76
2024/04/03 12:54:26;;;;;;;0.00;0.00;;;;;;;15.26;62.99;98945.13;5000235;28;20031;-74
2024/04/03 12:56:54;;;;;;;0.00;0.00;;;;;;;15.39;62.93;98933.06;5005960;28;20384;-75
2024/04/03 12:59:22;;;;;;;0.00;0.00;;;;;;;15.18;61.65;98939.31;4978829;28;20433;-76
2024/04/03 13:01:51;;;;;;;0.00;0.00;;;;;;;15.41;62.90;98930.78;4986018;28;20021;-75
2024/04/03 13:04:18;;;;;;;0.00;0.00;;;;;;;15.38;62.15;98931.44;5018436;28;20126;-74
2024/04/03 13:06:43;;;;;;;0.00;0.00;;;;;;;14.93;62.24;98956.81;5005940;28;20033;-75
2024/04/03 13:09:11;;;;;;;0.00;0.00;;;;;;;14.78;62.22;98952.66;5004907;28;20380;-76
2024/04/03 13:12:33;;;;;;;;;;;;;;;;;;;;;
2024/04/03 13:18:32;;;;;;;0.00;0.00;;;;;;;16.63;57.57;98928.03;4955098;28;20444;-74
2024/04/03 13:21:02;;;;;;;0.00;0.00;;;;;;;16.07;57.03;98976.16;5017104;28;20022;-74
2024/04/03 13:23:42;;;;;;;;;;;;;;;;;;;;;
2024/04/03 13:26:08;;;;;;;0.00;0.00;;;;;;;18.97;50.63;98957.78;5014682;28;20021;-75
2024/04/03 13:28:36;;;;;;;0.00;0.00;;;;;;;18.29;51.54;98976.16;5031189;28;20025;-76
2024/04/03 13:31:01;;;;;;;0.00;0.00;;;;;;;16.84;53.17;98972.13;5011034;28;20064;-75
2024/04/03 13:33:26;;;;;;;0.00;0.00;;;;;;;15.57;57.39;98990.81;5011546;28;20104;-75
2024/04/03 13:35:52;;;;;;;0.00;0.00;;;;;;;14.93;61.94;98976.06;5008805;28;20108;-76
2024/04/03 13:38:18;;;;;;;0.00;0.00;;;;;;;14.26;63.71;98981.09;5028964;28;20051;-76
2024/04/03 13:40:45;;;;;;;0.00;0.00;;;;;;;13.81;65.20;98992.44;5019376;28;20094;-75
2024/04/03 13:43:18;;;;;;;0.00;0.00;;;;;;;14.11;66.10;98994.19;5030239;28;20025;-76
2024/04/03 13:45:44;;;;;;;0.00;0.00;;;;;;;16.11;61.25;99017.66;5029655;28;20365;-76
2024/04/03 13:48:10;;;;;;;0.00;0.00;;;;;;;17.16;55.99;99017.41;5002078;28;20068;-75
2024/04/03 13:50:38;;;;;;;0.00;0.00;;;;;;;18.61;52.91;98981.75;5006556;28;20503;-75
2024/04/03 13:53:06;;;;;;;0.00;0.00;;;;;;;19.45;48.12;98999.31;5008210;28;20018;-75
2024/04/03 13:55:34;;;;;;;0.00;0.00;;;;;;;20.75;46.24;99015.91;5033492;28;20056;-76
2024/04/03 13:57:59;;;;;;;0.00;0.00;;;;;;;19.80;46.91;99025.44;5024830;28;20403;-77
2024/04/03 14:00:25;;;;;;;0.00;0.00;;;;;;;18.66;48.39;99031.34;5020179;28;20042;-76
2024/04/03 14:02:51;;;;;;;0.00;0.00;;;;;;;18.20;49.86;99028.09;4990076;28;20030;-75
2024/04/03 14:05:21;;;;;;;0.00;0.00;;;;;;;18.13;49.78;99025.13;5026231;28;20025;-76
2024/04/03 14:07:48;;;;;;;0.00;0.00;;;;;;;20.88;44.75;99019.28;5003535;28;20040;-77
2024/04/03 14:10:14;;;;;;;0.00;0.00;;;;;;;22.06;40.53;99037.03;5027932;28;20017;-75
2024/04/03 14:12:42;;;;;;;0.00;0.00;;;;;;;23.17;40.66;99031.13;5001238;28;20058;-75
2024/04/03 14:15:08;;;;;;;0.00;0.00;;;;;;;26.02;35.00;99074.03;4981422;28;20056;-75
2024/04/03 14:17:33;;;;;;;0.00;0.00;;;;;;;23.46;36.02;99040.50;5023291;28;20065;-76
2024/04/03 14:20:00;;;;;;;0.00;0.00;;;;;;;21.16;39.05;99065.41;4987653;28;20065;-74
2024/04/03 14:22:29;;;;;;;0.00;0.00;;;;;;;18.59;44.07;99058.84;5011237;28;20467;-75
2024/04/03 14:24:56;;;;;;;0.00;0.00;;;;;;;16.88;48.41;99056.72;5002227;28;20033;-76
2024/04/03 14:27:22;;;;;;;0.00;0.00;;;;;;;15.74;52.75;99070.59;4993279;28;20033;-76
2024/04/03 14:29:47;;;;;;;0.00;0.00;;;;;;;14.96;56.00;99063.50;5009265;28;20021;-77
2024/04/03 14:32:14;;;;;;;0.00;0.00;;;;;;;15.00;58.14;99065.25;5018749;28;20489;-77
2024/04/03 14:34:40;;;;;;;0.00;0.00;;;;;;;16.90;55.71;99070.97;4982687;28;20049;-77
2024/04/03 14:37:08;;;;;;;0.00;0.00;;;;;;;18.79;50.36;99058.97;4993506;28;20056;-75
2024/04/03 14:39:33;;;;;;;0.00;0.00;;;;;;;19.18;48.60;99070.31;5023817;28;20033;-76
2024/04/03 14:41:59;;;;;;;0.00;0.00;;;;;;;18.57;48.57;99071.41;5008579;28;20131;-75
2024/04/03 14:44:24;;;;;;;0.00;0.00;;;;;;;19.22;47.46;99079.50;5011975;28;20037;-75
2024/04/03 14:46:50;;;;;;;0.00;0.00;;;;;;;20.96;45.31;99084.94;5015027;28;20176;-75
2024/04/03 14:49:22;;;;;;;0.00;0.00;;;;;;;22.45;40.81;99077.72;5016945;28;20051;-75
2024/04/03 14:51:50;;;;;;;0.00;0.00;;;;;;;22.81;38.41;99076.16;4996938;28;20030;-75
2024/04/03 14:54:15;;;;;;;0.00;0.00;;;;;;;22.00;39.08;99085.84;4995197;28;20514;-75
2024/04/03 14:56:41;;;;;;;0.00;0.00;;;;;;;21.07;39.69;99091.50;5003634;28;20029;-74
2024/04/03 14:59:06;;;;;;;0.00;0.00;;;;;;;19.57;42.94;99087.09;5022842;28;20398;-75
2024/04/03 15:01:31;;;;;;;0.00;0.00;;;;;;;18.45;45.93;99075.03;5018402;28;20063;-74
2024/04/03 15:03:57;;;;;;;0.00;0.00;;;;;;;17.76;47.97;99094.31;4992606;28;20314;-76
2024/04/03 15:06:25;;;;;;;0.00;0.00;;;;;;;17.17;49.77;99085.31;5015070;28;20034;-75
2024/04/03 15:08:53;;;;;;;0.00;0.00;;;;;;;16.98;50.54;99098.81;5000311;28;20033;-74
2024/04/03 15:11:19;;;;;;;0.00;0.00;;;;;;;16.78;51.13;99105.97;5009321;28;20466;-74
2024/04/03 15:13:48;;;;;;;0.00;0.00;;;;;;;16.47;53.04;99101.72;4993125;28;20104;-76
2024/04/03 15:16:13;;;;;;;0.00;0.00;;;;;;;16.16;54.38;99117.53;4978335;28;20045;-75
2024/04/03 15:18:41;;;;;;;0.00;0.00;;;;;;;15.90;54.88;99112.19;5007256;28;20096;-75
2024/04/03 15:21:07;;;;;;;0.00;0.00;;;;;;;15.40;55.24;99110.94;5031039;28;20017;-75
2024/04/03 15:23:33;;;;;;;0.00;0.00;;;;;;;15.32;56.14;99120.06;4999692;28;20033;-75
2024/04/03 15:26:02;;;;;;;0.00;0.00;;;;;;;15.23;56.76;99128.34;5010066;28;20037;-73
2024/04/03 15:28:30;;;;;;;0.00;0.00;;;;;;;15.06;57.42;99126.44;5021880;28;20034;-75
2024/04/03 15:30:59;;;;;;;0.00;0.00;;;;;;;15.58;57.19;99128.22;4986641;28;21967;-74
2024/04/03 15:33:24;;;;;;;0.00;0.00;;;;;;;16.64;54.68;99131.13;5009202;28;20044;-75
2024/04/03 15:35:53;;;;;;;0.00;0.00;;;;;;;17.67;52.90;99135.06;5022014;28;20029;-75
2024/04/03 15:38:18;;;;;;;0.00;0.00;;;;;;;18.64;50.26;99127.78;5011086;28;20030;-75
2024/04/03 15:40:46;;;;;;;0.00;0.00;;;;;;;19.00;48.53;99139.91;4996736;28;20033;-74
2024/04/03 15:43:12;;;;;;;0.00;0.00;;;;;;;18.96;46.75;99147.28;5017788;28;20041;-73
2024/04/03 15:45:39;;;;;;;0.00;0.00;;;;;;;18.32;47.92;99143.44;5026265;28;20025;-75
2024/04/03 15:48:05;;;;;;;0.00;0.00;;;;;;;18.03;49.94;99147.31;5021067;28;20037;-75
2024/04/03 15:50:33;;;;;;;0.00;0.00;;;;;;;17.80;50.19;99128.41;5018530;28;20021;-74
2024/04/03 15:53:06;;;;;;;0.00;0.00;;;;;;;18.16;50.97;99135.06;4979562;28;20056;-75
2024/04/03 15:55:31;;;;;;;0.00;0.00;;;;;;;18.54;48.62;99127.47;5004215;28;20112;-75
2024/04/03 15:58:00;;;;;;;0.00;0.00;;;;;;;18.83;47.39;99124.34;5001397;28;20176;-77
2024/04/03 16:00:25;;;;;;;0.00;0.00;;;;;;;18.94;45.84;99124.69;4981679;28;20033;-75
2024/04/03 16:02:50;;;;;;;0.00;0.00;;;;;;;18.78;47.84;99129.38;5013835;28;20455;-75
2024/04/03 16:05:16;;;;;;;0.00;0.00;;;;;;;18.97;47.55;99137.84;5011257;28;20121;-76
2024/04/03 16:07:42;;;;;;;0.00;0.00;;;;;;;19.04;47.68;99123.38;5004762;28;20476;-76
2024/04/03 16:10:08;;;;;;;0.00;0.00;;;;;;;19.51;45.92;99142.00;4981183;28;20045;-75
2024/04/03 16:12:34;;;;;;;0.00;0.00;;;;;;;19.40;44.33;99131.81;5005012;28;20069;-76
2024/04/03 16:14:59;;;;;;;0.00;0.00;;;;;;;18.82;45.37;99133.84;5005377;28;20391;-75
2024/04/03 16:17:25;;;;;;;0.00;0.00;;;;;;;18.41;45.87;99148.84;5008131;28;20463;-74
2024/04/03 16:19:50;;;;;;;0.00;0.00;;;;;;;17.81;46.80;99157.66;5020059;28;20499;-75